sensor_id;sensor_type;location;lat;lon;timestamp;P1;durP1;ratioP1;P2;durP2;ratioP2
2558;SDS011;1289;53.488;10.006;2023-02-11T00:01:36;40.20;;;25.20;;
2558;SDS011;1289;53.488;10.006;2023-02-11T00:04:03;41.27;;;26.27;;
2558;SDS011;1289;53.488;10.006;2023-02-11T00:06:32;48.87;;;27.97;;
2558;SDS011;1289;53.488;10.006;2023-02-11T00:09:00;56.20;;;26.60;;
2558;SDS011;1289;53.488;10.006;2023-02-11T00:11:27;37.37;;;27.40;;
2558;SDS011;1289;53.488;10.006;2023-02-11T00:13:55;43.13;;;26.80;;
2558;SDS011;1289;53.488;10.006;2023-02-11T00:16:22;40.63;;;24.77;;
2558;SDS011;1289;53.488;10.006;2023-02-11T00:18:48;47.20;;;25.17;;
2558;SDS011;1289;53.488;10.006;2023-02-11T00:21:18;39.53;;;26.90;;
2558;SDS011;1289;53.488;10.006;2023-02-11T00:23:47;38.20;;;27.70;;
2558;SDS011;1289;53.488;10.006;2023-02-11T00:26:14;49.60;;;27.33;;
2558;SDS011;1289;53.488;10.006;2023-02-11T00:28:42;38.30;;;26.77;;
2558;SDS011;1289;53.488;10.006;2023-02-11T00:31:09;39.07;;;27.70;;
2558;SDS011;1289;53.488;10.006;2023-02-11T00:33:35;42.30;;;26.40;;
2558;SDS011;1289;53.488;10.006;2023-02-11T00:36:05;41.57;;;25.70;;
2558;SDS011;1289;53.488;10.006;2023-02-11T00:38:32;41.83;;;26.70;;
2558;SDS011;1289;53.488;10.006;2023-02-11T00:41:00;40.13;;;26.87;;
2558;SDS011;1289;53.488;10.006;2023-02-11T00:43:27;43.37;;;26.90;;
2558;SDS011;1289;53.488;10.006;2023-02-11T00:45:53;42.40;;;29.03;;
2558;SDS011;1289;53.488;10.006;2023-02-11T00:48:22;37.13;;;25.43;;
2558;SDS011;1289;53.488;10.006;2023-02-11T00:50:48;45.67;;;27.97;;
2558;SDS011;1289;53.488;10.006;2023-02-11T00:53:15;44.00;;;27.23;;
2558;SDS011;1289;53.488;10.006;2023-02-11T00:55:41;39.70;;;26.47;;
2558;SDS011;1289;53.488;10.006;2023-02-11T00:58:09;48.17;;;28.43;;
2558;SDS011;1289;53.488;10.006;2023-02-11T01:00:36;40.63;;;27.67;;
2558;SDS011;1289;53.488;10.006;2023-02-11T01:03:02;49.17;;;29.30;;
2558;SDS011;1289;53.488;10.006;2023-02-11T01:05:30;40.87;;;27.70;;
2558;SDS011;1289;53.488;10.006;2023-02-11T01:07:56;41.63;;;27.10;;
2558;SDS011;1289;53.488;10.006;2023-02-11T01:10:23;41.80;;;28.33;;
2558;SDS011;1289;53.488;10.006;2023-02-11T01:12:51;39.57;;;27.87;;
2558;SDS011;1289;53.488;10.006;2023-02-11T01:15:19;40.60;;;27.27;;
2558;SDS011;1289;53.488;10.006;2023-02-11T01:17:46;40.20;;;29.07;;
2558;SDS011;1289;53.488;10.006;2023-02-11T01:20:13;45.60;;;27.67;;
2558;SDS011;1289;53.488;10.006;2023-02-11T01:22:41;40.00;;;24.70;;
2558;SDS011;1289;53.488;10.006;2023-02-11T01:25:08;44.60;;;27.93;;
2558;SDS011;1289;53.488;10.006;2023-02-11T01:27:35;40.70;;;27.40;;
2558;SDS011;1289;53.488;10.006;2023-02-11T01:30:03;45.20;;;27.47;;
2558;SDS011;1289;53.488;10.006;2023-02-11T01:32:32;38.47;;;26.47;;
2558;SDS011;1289;53.488;10.006;2023-02-11T01:34:59;42.77;;;27.60;;
2558;SDS011;1289;53.488;10.006;2023-02-11T01:37:26;47.60;;;27.27;;
2558;SDS011;1289;53.488;10.006;2023-02-11T01:39:53;42.87;;;27.97;;
2558;SDS011;1289;53.488;10.006;2023-02-11T01:42:20;46.53;;;27.47;;
2558;SDS011;1289;53.488;10.006;2023-02-11T01:44:49;43.40;;;26.27;;
2558;SDS011;1289;53.488;10.006;2023-02-11T01:47:16;42.33;;;27.10;;
2558;SDS011;1289;53.488;10.006;2023-02-11T01:49:48;46.13;;;28.83;;
2558;SDS011;1289;53.488;10.006;2023-02-11T01:52:18;42.93;;;27.60;;
2558;SDS011;1289;53.488;10.006;2023-02-11T01:54:48;45.60;;;26.70;;
2558;SDS011;1289;53.488;10.006;2023-02-11T01:57:36;44.63;;;28.00;;
2558;SDS011;1289;53.488;10.006;2023-02-11T02:00:06;48.07;;;28.13;;
2558;SDS011;1289;53.488;10.006;2023-02-11T02:02:41;41.87;;;27.30;;
2558;SDS011;1289;53.488;10.006;2023-02-11T02:05:16;44.27;;;27.60;;
2558;SDS011;1289;53.488;10.006;2023-02-11T02:07:48;55.80;;;28.20;;
2558;SDS011;1289;53.488;10.006;2023-02-11T02:10:21;39.20;;;27.80;;
2558;SDS011;1289;53.488;10.006;2023-02-11T02:12:51;43.90;;;27.47;;
2558;SDS011;1289;53.488;10.006;2023-02-11T02:15:22;47.10;;;27.80;;
2558;SDS011;1289;53.488;10.006;2023-02-11T02:17:58;41.27;;;26.37;;
2558;SDS011;1289;53.488;10.006;2023-02-11T02:23:53;38.20;;;26.30;;
2558;SDS011;1289;53.488;10.006;2023-02-11T02:29:50;38.90;;;25.60;;
2558;SDS011;1289;53.488;10.006;2023-02-11T02:32:33;44.87;;;25.27;;
2558;SDS011;1289;53.488;10.006;2023-02-11T02:35:10;42.77;;;25.10;;
2558;SDS011;1289;53.488;10.006;2023-02-11T02:37:43;39.30;;;23.60;;
2558;SDS011;1289;53.488;10.006;2023-02-11T02:40:14;45.63;;;24.50;;
2558;SDS011;1289;53.488;10.006;2023-02-11T02:42:42;35.17;;;24.00;;
2558;SDS011;1289;53.488;10.006;2023-02-11T02:45:10;36.73;;;25.50;;
2558;SDS011;1289;53.488;10.006;2023-02-11T02:47:38;38.70;;;25.93;;
2558;SDS011;1289;53.488;10.006;2023-02-11T02:50:05;43.33;;;25.00;;
2558;SDS011;1289;53.488;10.006;2023-02-11T02:52:34;36.67;;;23.53;;
2558;SDS011;1289;53.488;10.006;2023-02-11T02:55:05;37.50;;;23.67;;
2558;SDS011;1289;53.488;10.006;2023-02-11T02:57:38;34.90;;;22.60;;
2558;SDS011;1289;53.488;10.006;2023-02-11T03:00:11;41.70;;;25.20;;
2558;SDS011;1289;53.488;10.006;2023-02-11T03:02:46;42.97;;;24.30;;
2558;SDS011;1289;53.488;10.006;2023-02-11T03:05:20;36.03;;;22.33;;
2558;SDS011;1289;53.488;10.006;2023-02-11T03:07:54;37.60;;;24.03;;
2558;SDS011;1289;53.488;10.006;2023-02-11T03:10:24;38.13;;;23.80;;
2558;SDS011;1289;53.488;10.006;2023-02-11T03:12:52;43.07;;;25.40;;
2558;SDS011;1289;53.488;10.006;2023-02-11T03:15:19;41.30;;;25.60;;
2558;SDS011;1289;53.488;10.006;2023-02-11T03:17:49;38.10;;;22.00;;
2558;SDS011;1289;53.488;10.006;2023-02-11T03:20:18;37.57;;;23.90;;
2558;SDS011;1289;53.488;10.006;2023-02-11T03:22:47;36.67;;;23.30;;
2558;SDS011;1289;53.488;10.006;2023-02-11T03:25:15;36.03;;;22.30;;
2558;SDS011;1289;53.488;10.006;2023-02-11T03:27:42;36.30;;;22.37;;
2558;SDS011;1289;53.488;10.006;2023-02-11T03:30:12;33.83;;;22.10;;
2558;SDS011;1289;53.488;10.006;2023-02-11T03:32:40;32.53;;;22.00;;
2558;SDS011;1289;53.488;10.006;2023-02-11T03:35:14;53.07;;;22.13;;
2558;SDS011;1289;53.488;10.006;2023-02-11T03:37:50;39.70;;;22.70;;
2558;SDS011;1289;53.488;10.006;2023-02-11T03:40:18;31.87;;;21.70;;
2558;SDS011;1289;53.488;10.006;2023-02-11T03:42:47;39.70;;;21.90;;
2558;SDS011;1289;53.488;10.006;2023-02-11T03:45:16;29.03;;;19.37;;
2558;SDS011;1289;53.488;10.006;2023-02-11T03:47:45;42.77;;;21.70;;
2558;SDS011;1289;53.488;10.006;2023-02-11T03:50:16;36.77;;;21.80;;
2558;SDS011;1289;53.488;10.006;2023-02-11T03:55:55;30.40;;;20.20;;
2558;SDS011;1289;53.488;10.006;2023-02-11T03:58:24;33.10;;;18.77;;
2558;SDS011;1289;53.488;10.006;2023-02-11T04:00:51;30.50;;;19.63;;
2558;SDS011;1289;53.488;10.006;2023-02-11T04:07:05;27.20;;;18.60;;
2558;SDS011;1289;53.488;10.006;2023-02-11T04:09:32;31.27;;;19.53;;
2558;SDS011;1289;53.488;10.006;2023-02-11T04:12:00;32.07;;;17.63;;
2558;SDS011;1289;53.488;10.006;2023-02-11T04:14:26;23.60;;;17.67;;
2558;SDS011;1289;53.488;10.006;2023-02-11T04:16:53;34.40;;;19.47;;
2558;SDS011;1289;53.488;10.006;2023-02-11T04:19:20;33.37;;;17.87;;
2558;SDS011;1289;53.488;10.006;2023-02-11T04:21:46;37.37;;;19.40;;
2558;SDS011;1289;53.488;10.006;2023-02-11T04:24:14;27.80;;;17.90;;
2558;SDS011;1289;53.488;10.006;2023-02-11T04:26:41;27.97;;;18.30;;
2558;SDS011;1289;53.488;10.006;2023-02-11T04:29:07;24.10;;;17.03;;
2558;SDS011;1289;53.488;10.006;2023-02-11T04:31:34;32.40;;;16.10;;
2558;SDS011;1289;53.488;10.006;2023-02-11T04:34:00;29.43;;;17.63;;
2558;SDS011;1289;53.488;10.006;2023-02-11T04:36:27;25.23;;;17.13;;
2558;SDS011;1289;53.488;10.006;2023-02-11T04:38:53;32.03;;;16.50;;
2558;SDS011;1289;53.488;10.006;2023-02-11T04:41:21;28.30;;;17.00;;
2558;SDS011;1289;53.488;10.006;2023-02-11T04:43:48;25.00;;;16.30;;
2558;SDS011;1289;53.488;10.006;2023-02-11T04:46:14;28.10;;;16.47;;
2558;SDS011;1289;53.488;10.006;2023-02-11T04:48:41;23.47;;;16.43;;
2558;SDS011;1289;53.488;10.006;2023-02-11T04:51:07;26.00;;;16.20;;
2558;SDS011;1289;53.488;10.006;2023-02-11T04:53:34;30.33;;;16.00;;
2558;SDS011;1289;53.488;10.006;2023-02-11T04:56:01;33.27;;;16.30;;
2558;SDS011;1289;53.488;10.006;2023-02-11T04:58:29;24.30;;;16.07;;
2558;SDS011;1289;53.488;10.006;2023-02-11T05:00:59;25.07;;;15.50;;
2558;SDS011;1289;53.488;10.006;2023-02-11T05:03:30;22.33;;;16.03;;
2558;SDS011;1289;53.488;10.006;2023-02-11T05:05:57;31.77;;;16.70;;
2558;SDS011;1289;53.488;10.006;2023-02-11T05:08:23;21.47;;;15.43;;
2558;SDS011;1289;53.488;10.006;2023-02-11T05:10:50;25.60;;;16.27;;
2558;SDS011;1289;53.488;10.006;2023-02-11T05:13:17;23.70;;;15.87;;
2558;SDS011;1289;53.488;10.006;2023-02-11T05:15:45;24.43;;;15.47;;
2558;SDS011;1289;53.488;10.006;2023-02-11T05:18:12;29.97;;;16.43;;
2558;SDS011;1289;53.488;10.006;2023-02-11T05:20:39;26.40;;;15.70;;
2558;SDS011;1289;53.488;10.006;2023-02-11T05:23:08;26.30;;;16.13;;
2558;SDS011;1289;53.488;10.006;2023-02-11T05:25:35;26.90;;;14.47;;
2558;SDS011;1289;53.488;10.006;2023-02-11T05:28:02;27.13;;;15.67;;
2558;SDS011;1289;53.488;10.006;2023-02-11T05:30:30;27.43;;;15.67;;
2558;SDS011;1289;53.488;10.006;2023-02-11T05:32:58;25.67;;;16.40;;
2558;SDS011;1289;53.488;10.006;2023-02-11T05:35:25;31.80;;;15.70;;
2558;SDS011;1289;53.488;10.006;2023-02-11T05:37:51;31.87;;;17.07;;
2558;SDS011;1289;53.488;10.006;2023-02-11T05:40:18;21.23;;;16.00;;
2558;SDS011;1289;53.488;10.006;2023-02-11T05:42:44;32.93;;;15.90;;
2558;SDS011;1289;53.488;10.006;2023-02-11T05:45:11;30.97;;;15.33;;
2558;SDS011;1289;53.488;10.006;2023-02-11T05:47:38;22.77;;;15.57;;
2558;SDS011;1289;53.488;10.006;2023-02-11T05:50:06;19.47;;;14.37;;
2558;SDS011;1289;53.488;10.006;2023-02-11T05:52:33;20.33;;;15.47;;
2558;SDS011;1289;53.488;10.006;2023-02-11T05:54:59;24.27;;;14.80;;
2558;SDS011;1289;53.488;10.006;2023-02-11T05:57:26;24.03;;;16.10;;
2558;SDS011;1289;53.488;10.006;2023-02-11T05:59:53;24.67;;;15.93;;
2558;SDS011;1289;53.488;10.006;2023-02-11T06:02:19;26.63;;;16.10;;
2558;SDS011;1289;53.488;10.006;2023-02-11T06:04:46;24.40;;;14.83;;
2558;SDS011;1289;53.488;10.006;2023-02-11T06:07:14;22.33;;;14.50;;
2558;SDS011;1289;53.488;10.006;2023-02-11T06:09:41;24.67;;;15.00;;
2558;SDS011;1289;53.488;10.006;2023-02-11T06:12:08;22.33;;;15.60;;
2558;SDS011;1289;53.488;10.006;2023-02-11T06:14:34;28.23;;;15.13;;
2558;SDS011;1289;53.488;10.006;2023-02-11T06:17:01;23.67;;;15.80;;
2558;SDS011;1289;53.488;10.006;2023-02-11T06:19:27;20.30;;;13.60;;
2558;SDS011;1289;53.488;10.006;2023-02-11T06:21:55;27.73;;;16.90;;
2558;SDS011;1289;53.488;10.006;2023-02-11T06:24:23;26.57;;;18.40;;
2558;SDS011;1289;53.488;10.006;2023-02-11T06:26:50;22.60;;;15.07;;
2558;SDS011;1289;53.488;10.006;2023-02-11T06:29:16;28.23;;;14.03;;
2558;SDS011;1289;53.488;10.006;2023-02-11T06:31:43;21.23;;;13.60;;
2558;SDS011;1289;53.488;10.006;2023-02-11T06:34:09;31.07;;;15.80;;
2558;SDS011;1289;53.488;10.006;2023-02-11T06:36:37;20.03;;;14.37;;
2558;SDS011;1289;53.488;10.006;2023-02-11T06:39:04;23.90;;;14.90;;
2558;SDS011;1289;53.488;10.006;2023-02-11T06:41:32;22.43;;;16.97;;
2558;SDS011;1289;53.488;10.006;2023-02-11T06:43:59;20.40;;;14.97;;
2558;SDS011;1289;53.488;10.006;2023-02-11T06:46:26;22.93;;;13.50;;
2558;SDS011;1289;53.488;10.006;2023-02-11T06:48:52;20.50;;;13.07;;
2558;SDS011;1289;53.488;10.006;2023-02-11T06:51:19;17.83;;;13.73;;
2558;SDS011;1289;53.488;10.006;2023-02-11T06:53:46;19.00;;;12.83;;
2558;SDS011;1289;53.488;10.006;2023-02-11T06:56:13;25.67;;;14.87;;
2558;SDS011;1289;53.488;10.006;2023-02-11T06:58:42;22.60;;;14.20;;
2558;SDS011;1289;53.488;10.006;2023-02-11T07:01:11;22.23;;;15.50;;
2558;SDS011;1289;53.488;10.006;2023-02-11T07:03:39;18.47;;;14.87;;
2558;SDS011;1289;53.488;10.006;2023-02-11T07:06:07;19.53;;;14.53;;
2558;SDS011;1289;53.488;10.006;2023-02-11T07:08:37;20.70;;;14.40;;
2558;SDS011;1289;53.488;10.006;2023-02-11T07:11:07;19.77;;;16.03;;
2558;SDS011;1289;53.488;10.006;2023-02-11T07:13:34;20.80;;;15.53;;
2558;SDS011;1289;53.488;10.006;2023-02-11T07:16:03;21.23;;;15.40;;
2558;SDS011;1289;53.488;10.006;2023-02-11T07:18:31;18.20;;;14.50;;
2558;SDS011;1289;53.488;10.006;2023-02-11T07:20:57;20.47;;;15.20;;
2558;SDS011;1289;53.488;10.006;2023-02-11T07:23:24;21.03;;;15.63;;
2558;SDS011;1289;53.488;10.006;2023-02-11T07:25:50;21.23;;;14.30;;
2558;SDS011;1289;53.488;10.006;2023-02-11T07:28:17;21.20;;;16.30;;
2558;SDS011;1289;53.488;10.006;2023-02-11T07:30:44;18.23;;;13.23;;
2558;SDS011;1289;53.488;10.006;2023-02-11T07:33:12;24.63;;;14.90;;
2558;SDS011;1289;53.488;10.006;2023-02-11T07:35:38;19.93;;;15.30;;
2558;SDS011;1289;53.488;10.006;2023-02-11T07:38:05;25.13;;;15.80;;
2558;SDS011;1289;53.488;10.006;2023-02-11T07:40:31;24.17;;;15.97;;
2558;SDS011;1289;53.488;10.006;2023-02-11T07:42:59;21.30;;;15.07;;
2558;SDS011;1289;53.488;10.006;2023-02-11T07:45:26;21.67;;;15.63;;
2558;SDS011;1289;53.488;10.006;2023-02-11T07:47:52;21.60;;;15.77;;
2558;SDS011;1289;53.488;10.006;2023-02-11T07:50:20;23.50;;;15.33;;
2558;SDS011;1289;53.488;10.006;2023-02-11T07:52:47;24.60;;;15.03;;
2558;SDS011;1289;53.488;10.006;2023-02-11T07:55:13;26.07;;;16.43;;
2558;SDS011;1289;53.488;10.006;2023-02-11T07:57:40;17.33;;;14.33;;
2558;SDS011;1289;53.488;10.006;2023-02-11T08:00:07;23.67;;;18.10;;
2558;SDS011;1289;53.488;10.006;2023-02-11T08:02:37;20.80;;;15.13;;
2558;SDS011;1289;53.488;10.006;2023-02-11T08:05:04;22.80;;;15.90;;
2558;SDS011;1289;53.488;10.006;2023-02-11T08:07:33;27.93;;;16.50;;
2558;SDS011;1289;53.488;10.006;2023-02-11T08:09:59;25.33;;;15.03;;
2558;SDS011;1289;53.488;10.006;2023-02-11T08:12:26;19.43;;;15.30;;
2558;SDS011;1289;53.488;10.006;2023-02-11T08:14:52;21.13;;;14.87;;
2558;SDS011;1289;53.488;10.006;2023-02-11T08:17:20;20.50;;;14.90;;
2558;SDS011;1289;53.488;10.006;2023-02-11T08:19:46;25.50;;;14.90;;
2558;SDS011;1289;53.488;10.006;2023-02-11T08:22:14;27.73;;;17.20;;
2558;SDS011;1289;53.488;10.006;2023-02-11T08:24:42;20.33;;;16.90;;
2558;SDS011;1289;53.488;10.006;2023-02-11T08:27:08;20.60;;;16.07;;
2558;SDS011;1289;53.488;10.006;2023-02-11T08:29:35;22.70;;;16.47;;
2558;SDS011;1289;53.488;10.006;2023-02-11T08:32:01;19.20;;;13.53;;
2558;SDS011;1289;53.488;10.006;2023-02-11T08:34:28;30.23;;;16.07;;
2558;SDS011;1289;53.488;10.006;2023-02-11T08:36:55;21.40;;;14.57;;
2558;SDS011;1289;53.488;10.006;2023-02-11T08:39:21;25.53;;;15.33;;
2558;SDS011;1289;53.488;10.006;2023-02-11T08:41:50;20.97;;;15.77;;
2558;SDS011;1289;53.488;10.006;2023-02-11T08:44:17;19.70;;;14.23;;
2558;SDS011;1289;53.488;10.006;2023-02-11T08:46:44;22.07;;;15.37;;
2558;SDS011;1289;53.488;10.006;2023-02-11T08:49:11;22.10;;;14.73;;
2558;SDS011;1289;53.488;10.006;2023-02-11T08:51:37;25.63;;;15.40;;
2558;SDS011;1289;53.488;10.006;2023-02-11T08:54:04;20.53;;;14.67;;
2558;SDS011;1289;53.488;10.006;2023-02-11T08:56:33;22.70;;;15.37;;
2558;SDS011;1289;53.488;10.006;2023-02-11T08:59:01;22.93;;;15.50;;
2558;SDS011;1289;53.488;10.006;2023-02-11T09:01:28;15.17;;;13.53;;
2558;SDS011;1289;53.488;10.006;2023-02-11T09:03:56;18.93;;;13.80;;
2558;SDS011;1289;53.488;10.006;2023-02-11T09:06:24;21.43;;;14.27;;
2558;SDS011;1289;53.488;10.006;2023-02-11T09:08:51;18.17;;;13.60;;
2558;SDS011;1289;53.488;10.006;2023-02-11T09:11:20;16.53;;;12.70;;
2558;SDS011;1289;53.488;10.006;2023-02-11T09:13:55;18.43;;;13.80;;
2558;SDS011;1289;53.488;10.006;2023-02-11T09:16:24;18.57;;;13.80;;
2558;SDS011;1289;53.488;10.006;2023-02-11T09:18:52;19.70;;;14.53;;
2558;SDS011;1289;53.488;10.006;2023-02-11T09:21:18;20.33;;;13.23;;
2558;SDS011;1289;53.488;10.006;2023-02-11T09:23:45;17.57;;;14.10;;
2558;SDS011;1289;53.488;10.006;2023-02-11T09:26:13;17.83;;;12.67;;
2558;SDS011;1289;53.488;10.006;2023-02-11T09:28:41;20.13;;;14.20;;
2558;SDS011;1289;53.488;10.006;2023-02-11T09:31:08;15.40;;;12.13;;
2558;SDS011;1289;53.488;10.006;2023-02-11T09:33:38;18.23;;;13.70;;
2558;SDS011;1289;53.488;10.006;2023-02-11T09:36:12;18.27;;;12.77;;
2558;SDS011;1289;53.488;10.006;2023-02-11T09:38:39;17.60;;;13.10;;
2558;SDS011;1289;53.488;10.006;2023-02-11T09:41:11;16.60;;;12.50;;
2558;SDS011;1289;53.488;10.006;2023-02-11T09:43:49;22.03;;;14.13;;
2558;SDS011;1289;53.488;10.006;2023-02-11T09:46:17;24.30;;;15.30;;
2558;SDS011;1289;53.488;10.006;2023-02-11T09:48:46;27.93;;;14.77;;
2558;SDS011;1289;53.488;10.006;2023-02-11T09:51:15;27.20;;;15.20;;
2558;SDS011;1289;53.488;10.006;2023-02-11T09:53:44;17.90;;;12.40;;
2558;SDS011;1289;53.488;10.006;2023-02-11T09:56:13;18.53;;;12.77;;
2558;SDS011;1289;53.488;10.006;2023-02-11T09:58:41;16.17;;;13.03;;
2558;SDS011;1289;53.488;10.006;2023-02-11T10:01:11;19.90;;;14.17;;
2558;SDS011;1289;53.488;10.006;2023-02-11T10:03:50;17.93;;;13.83;;
2558;SDS011;1289;53.488;10.006;2023-02-11T10:06:26;19.70;;;12.83;;
2558;SDS011;1289;53.488;10.006;2023-02-11T10:09:01;20.33;;;12.33;;
2558;SDS011;1289;53.488;10.006;2023-02-11T10:11:34;15.23;;;12.17;;
2558;SDS011;1289;53.488;10.006;2023-02-11T10:14:07;15.50;;;11.20;;
2558;SDS011;1289;53.488;10.006;2023-02-11T10:16:45;17.40;;;12.53;;
2558;SDS011;1289;53.488;10.006;2023-02-11T10:22:11;20.70;;;12.70;;
2558;SDS011;1289;53.488;10.006;2023-02-11T10:24:40;16.43;;;11.30;;
2558;SDS011;1289;53.488;10.006;2023-02-11T10:27:15;17.70;;;11.40;;
2558;SDS011;1289;53.488;10.006;2023-02-11T10:29:45;15.23;;;9.83;;
2558;SDS011;1289;53.488;10.006;2023-02-11T10:32:16;23.57;;;12.30;;
2558;SDS011;1289;53.488;10.006;2023-02-11T10:34:53;15.67;;;11.80;;
2558;SDS011;1289;53.488;10.006;2023-02-11T10:37:23;24.43;;;12.70;;
2558;SDS011;1289;53.488;10.006;2023-02-11T10:39:50;15.40;;;10.60;;
2558;SDS011;1289;53.488;10.006;2023-02-11T10:42:16;17.30;;;12.07;;
2558;SDS011;1289;53.488;10.006;2023-02-11T10:44:46;18.93;;;10.93;;
2558;SDS011;1289;53.488;10.006;2023-02-11T10:47:20;23.40;;;11.60;;
2558;SDS011;1289;53.488;10.006;2023-02-11T10:49:48;15.17;;;10.50;;
2558;SDS011;1289;53.488;10.006;2023-02-11T10:52:20;29.47;;;12.70;;
2558;SDS011;1289;53.488;10.006;2023-02-11T10:54:54;18.13;;;11.07;;
2558;SDS011;1289;53.488;10.006;2023-02-11T10:57:22;19.13;;;11.70;;
2558;SDS011;1289;53.488;10.006;2023-02-11T10:59:55;17.63;;;11.40;;
2558;SDS011;1289;53.488;10.006;2023-02-11T11:02:23;22.40;;;11.77;;
2558;SDS011;1289;53.488;10.006;2023-02-11T11:04:56;16.17;;;10.40;;
2558;SDS011;1289;53.488;10.006;2023-02-11T11:07:25;18.20;;;12.30;;
2558;SDS011;1289;53.488;10.006;2023-02-11T11:09:53;21.63;;;10.87;;
2558;SDS011;1289;53.488;10.006;2023-02-11T11:12:30;17.03;;;10.37;;
2558;SDS011;1289;53.488;10.006;2023-02-11T11:15:12;23.07;;;11.50;;
2558;SDS011;1289;53.488;10.006;2023-02-11T11:17:42;17.63;;;9.60;;
2558;SDS011;1289;53.488;10.006;2023-02-11T11:20:13;13.93;;;10.73;;
2558;SDS011;1289;53.488;10.006;2023-02-11T11:22:43;14.77;;;10.23;;
2558;SDS011;1289;53.488;10.006;2023-02-11T11:25:20;14.30;;;9.87;;
2558;SDS011;1289;53.488;10.006;2023-02-11T11:27:48;13.80;;;10.23;;
2558;SDS011;1289;53.488;10.006;2023-02-11T11:30:15;16.60;;;9.80;;
2558;SDS011;1289;53.488;10.006;2023-02-11T11:32:42;13.73;;;10.50;;
2558;SDS011;1289;53.488;10.006;2023-02-11T11:35:19;14.10;;;10.97;;
2558;SDS011;1289;53.488;10.006;2023-02-11T11:37:51;14.13;;;8.50;;
2558;SDS011;1289;53.488;10.006;2023-02-11T11:40:23;15.00;;;9.80;;
2558;SDS011;1289;53.488;10.006;2023-02-11T11:43:02;12.50;;;9.33;;
2558;SDS011;1289;53.488;10.006;2023-02-11T11:45:51;11.50;;;9.17;;
2558;SDS011;1289;53.488;10.006;2023-02-11T11:48:20;11.30;;;9.17;;
2558;SDS011;1289;53.488;10.006;2023-02-11T11:50:48;13.13;;;9.20;;
2558;SDS011;1289;53.488;10.006;2023-02-11T11:53:19;17.57;;;11.40;;
2558;SDS011;1289;53.488;10.006;2023-02-11T11:55:49;13.30;;;9.90;;
2558;SDS011;1289;53.488;10.006;2023-02-11T11:58:21;17.23;;;10.83;;
2558;SDS011;1289;53.488;10.006;2023-02-11T12:00:51;15.87;;;9.33;;
2558;SDS011;1289;53.488;10.006;2023-02-11T12:03:33;16.87;;;9.53;;
2558;SDS011;1289;53.488;10.006;2023-02-11T12:06:20;13.13;;;9.77;;
2558;SDS011;1289;53.488;10.006;2023-02-11T12:08:57;17.13;;;9.87;;
2558;SDS011;1289;53.488;10.006;2023-02-11T12:11:30;21.47;;;8.70;;
2558;SDS011;1289;53.488;10.006;2023-02-11T12:14:02;14.07;;;8.07;;
2558;SDS011;1289;53.488;10.006;2023-02-11T12:16:37;16.17;;;8.00;;
2558;SDS011;1289;53.488;10.006;2023-02-11T12:22:02;15.00;;;8.10;;
2558;SDS011;1289;53.488;10.006;2023-02-11T12:24:47;10.93;;;8.67;;
2558;SDS011;1289;53.488;10.006;2023-02-11T12:27:21;12.63;;;8.40;;
2558;SDS011;1289;53.488;10.006;2023-02-11T12:29:54;14.10;;;8.37;;
2558;SDS011;1289;53.488;10.006;2023-02-11T12:32:28;14.53;;;8.10;;
2558;SDS011;1289;53.488;10.006;2023-02-11T12:35:15;10.57;;;7.20;;
2558;SDS011;1289;53.488;10.006;2023-02-11T12:37:52;9.93;;;6.83;;
2558;SDS011;1289;53.488;10.006;2023-02-11T12:40:31;12.63;;;7.77;;
2558;SDS011;1289;53.488;10.006;2023-02-11T12:43:03;10.80;;;8.47;;
2558;SDS011;1289;53.488;10.006;2023-02-11T12:49:05;8.83;;;6.43;;
2558;SDS011;1289;53.488;10.006;2023-02-11T12:51:41;13.40;;;6.80;;
2558;SDS011;1289;53.488;10.006;2023-02-11T12:54:17;7.77;;;6.10;;
2558;SDS011;1289;53.488;10.006;2023-02-11T12:56:49;12.40;;;6.77;;
2558;SDS011;1289;53.488;10.006;2023-02-11T12:59:21;10.67;;;7.07;;
2558;SDS011;1289;53.488;10.006;2023-02-11T13:01:54;8.83;;;6.83;;
2558;SDS011;1289;53.488;10.006;2023-02-11T13:04:23;9.07;;;7.83;;
2558;SDS011;1289;53.488;10.006;2023-02-11T13:06:52;7.67;;;6.97;;
2558;SDS011;1289;53.488;10.006;2023-02-11T13:09:22;7.77;;;6.50;;
2558;SDS011;1289;53.488;10.006;2023-02-11T13:11:52;9.30;;;5.57;;
2558;SDS011;1289;53.488;10.006;2023-02-11T13:14:21;8.20;;;5.90;;
2558;SDS011;1289;53.488;10.006;2023-02-11T13:16:50;10.40;;;6.80;;
2558;SDS011;1289;53.488;10.006;2023-02-11T13:19:17;7.50;;;5.43;;
2558;SDS011;1289;53.488;10.006;2023-02-11T13:21:51;9.20;;;5.13;;
2558;SDS011;1289;53.488;10.006;2023-02-11T13:24:24;13.30;;;6.23;;
2558;SDS011;1289;53.488;10.006;2023-02-11T13:27:00;9.13;;;5.70;;
2558;SDS011;1289;53.488;10.006;2023-02-11T13:29:34;11.00;;;5.77;;
2558;SDS011;1289;53.488;10.006;2023-02-11T13:32:09;8.87;;;5.93;;
2558;SDS011;1289;53.488;10.006;2023-02-11T13:37:23;8.17;;;5.20;;
2558;SDS011;1289;53.488;10.006;2023-02-11T13:39:55;10.60;;;5.40;;
2558;SDS011;1289;53.488;10.006;2023-02-11T13:42:24;8.67;;;5.90;;
2558;SDS011;1289;53.488;10.006;2023-02-11T13:44:51;9.17;;;5.57;;
2558;SDS011;1289;53.488;10.006;2023-02-11T13:47:23;8.33;;;5.30;;
2558;SDS011;1289;53.488;10.006;2023-02-11T13:49:51;7.73;;;4.83;;
2558;SDS011;1289;53.488;10.006;2023-02-11T13:52:21;7.33;;;5.07;;
2558;SDS011;1289;53.488;10.006;2023-02-11T13:54:49;10.27;;;5.23;;
2558;SDS011;1289;53.488;10.006;2023-02-11T13:57:22;9.23;;;5.40;;
2558;SDS011;1289;53.488;10.006;2023-02-11T13:59:53;10.23;;;4.97;;
2558;SDS011;1289;53.488;10.006;2023-02-11T14:02:22;6.40;;;5.80;;
2558;SDS011;1289;53.488;10.006;2023-02-11T14:05:18;15.07;;;6.07;;
2558;SDS011;1289;53.488;10.006;2023-02-11T14:08:17;10.23;;;6.13;;
2558;SDS011;1289;53.488;10.006;2023-02-11T14:11:06;9.97;;;5.57;;
2558;SDS011;1289;53.488;10.006;2023-02-11T14:16:38;10.03;;;6.20;;
2558;SDS011;1289;53.488;10.006;2023-02-11T14:19:47;19.60;;;5.90;;
2558;SDS011;1289;53.488;10.006;2023-02-11T14:22:15;14.33;;;7.30;;
2558;SDS011;1289;53.488;10.006;2023-02-11T14:24:45;10.93;;;6.10;;
2558;SDS011;1289;53.488;10.006;2023-02-11T14:27:15;10.10;;;5.70;;
2558;SDS011;1289;53.488;10.006;2023-02-11T14:29:54;15.50;;;6.73;;
2558;SDS011;1289;53.488;10.006;2023-02-11T14:32:37;13.27;;;6.90;;
2558;SDS011;1289;53.488;10.006;2023-02-11T14:35:09;10.00;;;6.77;;
2558;SDS011;1289;53.488;10.006;2023-02-11T14:37:41;13.60;;;7.10;;
2558;SDS011;1289;53.488;10.006;2023-02-11T14:40:17;20.57;;;8.13;;
2558;SDS011;1289;53.488;10.006;2023-02-11T14:42:49;13.10;;;7.97;;
2558;SDS011;1289;53.488;10.006;2023-02-11T14:45:19;13.83;;;7.97;;
2558;SDS011;1289;53.488;10.006;2023-02-11T14:47:52;14.90;;;8.30;;
2558;SDS011;1289;53.488;10.006;2023-02-11T14:50:21;20.23;;;8.13;;
2558;SDS011;1289;53.488;10.006;2023-02-11T14:52:50;14.10;;;10.00;;
2558;SDS011;1289;53.488;10.006;2023-02-11T14:55:21;16.00;;;9.73;;
2558;SDS011;1289;53.488;10.006;2023-02-11T14:58:04;13.03;;;8.50;;
2558;SDS011;1289;53.488;10.006;2023-02-11T15:00:32;14.70;;;9.73;;
2558;SDS011;1289;53.488;10.006;2023-02-11T15:03:00;14.13;;;9.53;;
2558;SDS011;1289;53.488;10.006;2023-02-11T15:05:27;16.20;;;8.80;;
2558;SDS011;1289;53.488;10.006;2023-02-11T15:07:54;17.23;;;8.97;;
2558;SDS011;1289;53.488;10.006;2023-02-11T15:10:25;17.33;;;10.13;;
2558;SDS011;1289;53.488;10.006;2023-02-11T15:12:55;18.77;;;9.80;;
2558;SDS011;1289;53.488;10.006;2023-02-11T15:15:23;18.83;;;10.80;;
2558;SDS011;1289;53.488;10.006;2023-02-11T15:17:51;16.60;;;11.13;;
2558;SDS011;1289;53.488;10.006;2023-02-11T15:20:21;22.37;;;10.77;;
2558;SDS011;1289;53.488;10.006;2023-02-11T15:22:51;22.40;;;11.90;;